Swift Arrow — WAFK — position and weather

sailwx.info

Track history (hours):
 
Tides and Currents Weather Stations Pressure Air Temp Water Temp Dewpoint Dewpoint Depression Visibility Wind Speed Wind Dir Waves Ship Positions

Swift Arrow

Owner: ARROW LAUNCH SERVICE INC, Port Angeles, WA. More information available from US FCC via Universal Licensing System and Coast Guard Vessel Documentation Center.

Last reported at 2015-Mar-02 19:33 UTC. Time now 2015-Mar-03 03:17 UTC.
Position N 47°34' W 122°21'.

Type: Port tender. MMSI: 369021000.

Date/timePositionNaut miles runAvg speedWind from/ knotsBaromVisibWave heightAir tempDewpointWater temp
2015-Mar-02 19:33N 47°34' W 122°21'1 0.7
2015-Mar-02 18:33N 47°35' W 122°22'1 0.6
2015-Mar-02 17:30N 47°34' W 122°21'0 0.0
2015-Mar-02 16:33N 47°34' W 122°21'0 0.0
2015-Mar-02 15:33N 47°34' W 122°21'2 0.7
2015-Mar-02 12:33N 47°36' W 122°23'1 1.4
2015-Mar-02 11:33N 47°36' W 122°21'2 0.4
2015-Mar-02 06:33N 47°34' W 122°21'2 2.0
2015-Mar-02 05:33N 47°36' W 122°23'2 0.3
2015-Mar-01 23:18N 47°34' W 122°21'4 5.3
2015-Mar-01 22:33N 47°38' W 122°24'1414.3
2015-Mar-01 21:33N 47°52' W 122°22'10 0.2
2015-Feb-28 03:14N 47°60' W 122°13'6 8.5
2015-Feb-28 02:34N 48°02' W 122°21'5 3.9
2015-Feb-28 01:17N 48°05' W 122°27'1115.1
2015-Feb-28 00:33N 47°59' W 122°14'1 0.0
2015-Feb-27 08:29N 47°60' W 122°13'1413.1
2015-Feb-27 07:26N 48°06' W 122°32'1011.5
2015-Feb-27 06:33N 48°01' W 122°18'4 0.4
2015-Feb-26 20:33N 47°60' W 122°13'1311.2
2015-Feb-26 19:21N 48°07' W 122°30'1316.2
2015-Feb-26 18:32N 47°59' W 122°14'  
2015-Feb-23 21:23N 47°60' W 122°13'3 0.6
2015-Feb-23 16:33N 48°00' W 122°18'1010.1
2015-Feb-23 15:32N 48°04' W 122°32'7 7.1
2015-Feb-23 14:33N 48°02' W 122°22'6 0.4
2015-Feb-22 21:33N 47°60' W 122°13'1412.5
2015-Feb-22 20:26N 48°06' W 122°32'1 0.7
2015-Feb-22 19:08N 48°05' W 122°32'5 8.0
2015-Feb-22 18:33N 48°05' W 122°25'9 0.8
2015-Feb-22 07:24N 47°60' W 122°13'1411.1
2015-Feb-22 06:11N 48°05' W 122°32'1 1.2
2015-Feb-22 05:30N 48°05' W 122°33'1213.1
2015-Feb-22 04:33N 47°60' W 122°17'  
Track history (hours):
 
Tides and Currents Weather Stations Pressure Air Temp Water Temp Dewpoint Dewpoint Depression Visibility Wind Speed Wind Dir Waves Ship Positions

Swift Arrow

Owner: ARROW LAUNCH SERVICE INC, Port Angeles, WA. More information available from US FCC via Universal Licensing System and Coast Guard Vessel Documentation Center.

Last reported at 2015-Mar-02 19:33 UTC. Time now 2015-Mar-03 03:17 UTC.
Position N 47°34' W 122°21'.

Type: Port tender. MMSI: 369021000.

Date/timePositionNaut miles runAvg speedWind from/ knotsBaromVisibWave heightAir tempDewpointWater temp
2015-Mar-02 19:33N 47°34' W 122°21'1 0.7
2015-Mar-02 18:33N 47°35' W 122°22'1 0.6
2015-Mar-02 17:30N 47°34' W 122°21'0 0.0
2015-Mar-02 16:33N 47°34' W 122°21'0 0.0
2015-Mar-02 15:33N 47°34' W 122°21'2 0.7
2015-Mar-02 12:33N 47°36' W 122°23'1 1.4
2015-Mar-02 11:33N 47°36' W 122°21'2 0.4
2015-Mar-02 06:33N 47°34' W 122°21'2 2.0
2015-Mar-02 05:33N 47°36' W 122°23'2 0.3
2015-Mar-01 23:18N 47°34' W 122°21'4 5.3
2015-Mar-01 22:33N 47°38' W 122°24'1414.3
2015-Mar-01 21:33N 47°52' W 122°22'10 0.2
2015-Feb-28 03:14N 47°60' W 122°13'6 8.5
2015-Feb-28 02:34N 48°02' W 122°21'5 3.9
2015-Feb-28 01:17N 48°05' W 122°27'1115.1
2015-Feb-28 00:33N 47°59' W 122°14'1 0.0
2015-Feb-27 08:29N 47°60' W 122°13'1413.1
2015-Feb-27 07:26N 48°06' W 122°32'1011.5
2015-Feb-27 06:33N 48°01' W 122°18'4 0.4
2015-Feb-26 20:33N 47°60' W 122°13'1311.2
2015-Feb-26 19:21N 48°07' W 122°30'1316.2
2015-Feb-26 18:32N 47°59' W 122°14'  
2015-Feb-23 21:23N 47°60' W 122°13'3 0.6
2015-Feb-23 16:33N 48°00' W 122°18'1010.1
2015-Feb-23 15:32N 48°04' W 122°32'7 7.1
2015-Feb-23 14:33N 48°02' W 122°22'6 0.4
2015-Feb-22 21:33N 47°60' W 122°13'1412.5
2015-Feb-22 20:26N 48°06' W 122°32'1 0.7
2015-Feb-22 19:08N 48°05' W 122°32'5 8.0
2015-Feb-22 18:33N 48°05' W 122°25'9 0.8
2015-Feb-22 07:24N 47°60' W 122°13'1411.1
2015-Feb-22 06:11N 48°05' W 122°32'1 1.2
2015-Feb-22 05:30N 48°05' W 122°33'1213.1
2015-Feb-22 04:33N 47°60' W 122°17'  

Dump ship's entire track history